Canefield Airport

Fair
25oC (77oF)

Fair


Winds: South south easterly @ 03kts / 06km/h

Humidity: 72%

Barometric Pressure: 1013 mb

Accumulated Rainfall for December: 0.0 mm

Updated: 18:00 local time (22:00 UTC)

Douglas-Charles Airport

Fair
27oC (81oF)

Fair


Winds: South easterly @ 05kts / 09km/h

Humidity: 70%

Barometric Pressure: 1014 mb

Accumulated Rainfall for December: 0.2 mm

Updated: 17:00 local time (21:00 UTC)

Satellite Imagery

Satellite Imagery
Click image for larger view. (Source: National Hurricane Center).

Aviation Routine Report (METAR)

Douglas-Charles: METAR TDPF 042100Z 13005KT 9999 FEW024 27/21 Q1014=
Canefield: METAR TDCF 042200Z 16003KT 9999 FEW020 25/20 Q1013=